Time;durP1;ratioP1;P1;durP2;ratioP2;P2;SDS_P1;SDS_P2;PMS_P1;PMS_P2;Temp;Humidity;BMP_temperature;BMP_pressure;BME280_temperature;BME280_humidity;BME280_pressure;Samples;Min_cycle;Max_cycle;Signal;HPM_P1;HPM_P2
2022/04/03 00:01:21;;;;;;;1.42;1.10;;;6.90;96.70;;;;;;5110291;28;20035;-79
2022/04/03 00:03:50;;;;;;;1.65;0.98;;;6.80;96.70;;;;;;5105932;28;20450;-79
2022/04/03 00:06:19;;;;;;;1.42;0.93;;;6.80;96.70;;;;;;5105540;28;20051;-77
2022/04/03 00:08:47;;;;;;;1.20;0.95;;;6.70;96.70;;;;;;5086352;28;20047;-77
2022/04/03 00:11:15;;;;;;;2.58;0.80;;;6.70;96.70;;;;;;5124715;27;20501;-78
2022/04/03 00:13:43;;;;;;;2.10;0.90;;;6.60;96.70;;;;;;5105153;28;20047;-77
2022/04/03 00:16:12;;;;;;;1.55;0.90;;;6.50;96.70;;;;;;5106232;28;20051;-78
2022/04/03 00:18:40;;;;;;;2.92;0.98;;;6.40;96.70;;;;;;5124262;28;20043;-78
2022/04/03 00:21:11;;;;;;;2.75;1.13;;;6.40;96.70;;;;;;5105428;27;20067;-78
2022/04/03 00:23:40;;;;;;;2.83;1.25;;;6.40;96.70;;;;;;5107266;27;20096;-77
2022/04/03 00:26:08;;;;;;;1.70;1.00;;;6.40;96.70;;;;;;5127958;27;20331;-78
2022/04/03 00:28:36;;;;;;;1.73;1.10;;;6.30;96.70;;;;;;5108846;27;20075;-77
2022/04/03 00:31:04;;;;;;;1.38;1.00;;;6.20;96.70;;;;;;5109720;27;20393;-78
2022/04/03 00:33:32;;;;;;;4.00;1.40;;;6.30;96.70;;;;;;5125134;27;20498;-78
2022/04/03 00:36:00;;;;;;;1.80;1.08;;;6.40;96.70;;;;;;5109204;27;20079;-78
2022/04/03 00:38:30;;;;;;;1.95;1.00;;;6.40;96.70;;;;;;5108987;27;20043;-78
2022/04/03 00:41:00;;;;;;;2.28;1.17;;;6.40;96.70;;;;;;5109029;27;20049;-78
2022/04/03 00:43:28;;;;;;;2.08;1.20;;;6.40;96.70;;;;;;5092308;27;20584;-77
2022/04/03 00:45:58;;;;;;;2.10;1.45;;;6.30;96.70;;;;;;5108611;27;20035;-79
2022/04/03 00:48:26;;;;;;;1.95;1.00;;;6.40;96.70;;;;;;5122595;27;20057;-77
2022/04/03 00:50:54;;;;;;;2.13;1.20;;;6.40;96.70;;;;;;5122520;27;20039;-78
2022/04/03 00:53:23;;;;;;;1.98;1.30;;;6.40;96.70;;;;;;5109921;27;20039;-78
2022/04/03 00:55:52;;;;;;;2.22;1.27;;;6.40;96.70;;;;;;5108349;27;20445;-78
2022/04/03 00:58:22;;;;;;;2.75;1.30;;;6.40;96.70;;;;;;5109162;27;20035;-78
2022/04/03 01:00:50;;;;;;;2.65;1.65;;;6.30;96.70;;;;;;5108366;27;20491;-78
2022/04/03 01:03:19;;;;;;;1.70;1.02;;;6.50;96.70;;;;;;5108961;27;20047;-78
2022/04/03 01:05:47;;;;;;;3.17;1.20;;;6.50;96.70;;;;;;5124961;27;20114;-78
2022/04/03 01:08:17;;;;;;;1.88;1.20;;;6.40;96.70;;;;;;5121759;27;20047;-79
2022/04/03 01:10:46;;;;;;;1.90;0.80;;;6.40;96.70;;;;;;5126151;27;20039;-74
2022/04/03 01:13:16;;;;;;;2.10;1.38;;;6.20;96.70;;;;;;5090699;27;20453;-73
2022/04/03 01:15:50;;;;;;;2.30;1.45;;;6.20;96.70;;;;;;5125789;27;20484;-73
2022/04/03 01:18:19;;;;;;;2.35;1.52;;;6.20;96.70;;;;;;5121934;27;20070;-74
2022/04/03 01:20:47;;;;;;;3.40;1.55;;;6.20;96.70;;;;;;5105606;27;20549;-73
2022/04/03 01:23:15;;;;;;;3.60;1.73;;;6.20;96.70;;;;;;5126126;27;20035;-74
2022/04/03 01:25:45;;;;;;;4.05;1.92;;;6.20;96.70;;;;;;5125373;27;20107;-74
2022/04/03 01:28:13;;;;;;;5.88;3.25;;;6.10;96.70;;;;;;5107348;27;20051;-74
2022/04/03 01:30:42;;;;;;;7.78;3.38;;;6.10;96.70;;;;;;5123930;27;20075;-74
2022/04/03 01:33:10;;;;;;;8.02;3.50;;;6.00;96.70;;;;;;5124473;27;20155;-73
2022/04/03 01:35:38;;;;;;;12.90;3.88;;;6.10;96.70;;;;;;5105310;27;20138;-74
2022/04/03 01:38:06;;;;;;;8.38;3.67;;;6.00;96.70;;;;;;5107056;27;20766;-74
2022/04/03 01:40:35;;;;;;;6.68;3.50;;;6.00;96.70;;;;;;5124652;27;20039;-74
2022/04/03 01:43:07;;;;;;;3.95;2.92;;;6.10;96.70;;;;;;5090016;27;20047;-74
2022/04/03 01:45:35;;;;;;;5.15;2.78;;;6.10;96.70;;;;;;5106796;27;20108;-74
2022/04/03 01:48:04;;;;;;;4.18;2.63;;;6.10;96.70;;;;;;5107017;27;20722;-73
2022/04/03 01:50:32;;;;;;;3.35;2.40;;;6.10;96.70;;;;;;5106276;27;20508;-74
2022/04/03 01:53:00;;;;;;;3.08;2.50;;;6.00;96.70;;;;;;5107272;27;20417;-73
2022/04/03 01:55:28;;;;;;;4.03;2.95;;;5.90;96.70;;;;;;5104630;27;20516;-74
2022/04/03 01:57:56;;;;;;;4.47;2.90;;;5.90;96.70;;;;;;5107947;27;20043;-74
2022/04/03 02:00:26;;;;;;;3.33;2.20;;;6.00;96.70;;;;;;5106233;27;20566;-73
2022/04/03 02:02:54;;;;;;;4.05;2.50;;;6.00;96.70;;;;;;5124737;27;20050;-74
2022/04/03 02:05:23;;;;;;;4.28;2.20;;;6.00;96.70;;;;;;5125069;27;20039;-74
2022/04/03 02:07:51;;;;;;;3.70;2.50;;;6.00;96.70;;;;;;5105442;27;20060;-74
2022/04/03 02:10:19;;;;;;;2.80;2.13;;;5.90;96.70;;;;;;5123063;27;20049;-73
2022/04/03 02:12:47;;;;;;;3.28;1.88;;;5.90;96.70;;;;;;5124194;27;20035;-73
2022/04/03 02:15:15;;;;;;;3.47;1.65;;;5.90;96.70;;;;;;5089000;27;20529;-73
2022/04/03 02:17:45;;;;;;;2.22;1.42;;;5.90;96.70;;;;;;5124428;27;20039;-72
2022/04/03 02:20:13;;;;;;;1.80;1.45;;;5.90;96.70;;;;;;5105586;27;20047;-73
2022/04/03 02:22:40;;;;;;;2.40;1.35;;;5.70;96.70;;;;;;5105193;27;20078;-73
2022/04/03 02:25:13;;;;;;;2.03;1.23;;;5.70;96.70;;;;;;5125068;27;20070;-73
2022/04/03 02:27:44;;;;;;;1.30;0.95;;;5.70;96.70;;;;;;5106328;27;20119;-77
2022/04/03 02:30:13;;;;;;;1.20;0.70;;;5.70;96.70;;;;;;5090528;27;20461;-77
2022/04/03 02:32:42;;;;;;;3.65;1.00;;;5.70;96.70;;;;;;5090338;27;20399;-77
2022/04/03 02:35:13;;;;;;;1.92;0.75;;;5.70;96.70;;;;;;5090523;27;20059;-77
2022/04/03 02:37:42;;;;;;;0.93;0.80;;;5.70;96.70;;;;;;5107049;27;20099;-77
2022/04/03 02:40:14;;;;;;;0.95;0.60;;;5.70;96.70;;;;;;5125918;27;20039;-77
2022/04/03 02:42:43;;;;;;;1.30;0.70;;;5.70;96.70;;;;;;5125658;27;20484;-77
2022/04/03 02:45:11;;;;;;;1.58;0.93;;;5.70;96.70;;;;;;5118051;27;20046;-78
2022/04/03 02:47:40;;;;;;;1.30;0.88;;;5.50;96.70;;;;;;5124684;27;20552;-78
2022/04/03 02:50:09;;;;;;;2.85;1.10;;;5.60;96.70;;;;;;5124333;27;20113;-78
2022/04/03 02:52:38;;;;;;;1.02;0.60;;;5.40;96.70;;;;;;5110169;27;20059;-78
2022/04/03 02:55:11;;;;;;;1.60;0.98;;;5.40;96.70;;;;;;5103928;28;20508;-77
2022/04/03 02:57:39;;;;;;;1.58;0.70;;;5.30;96.70;;;;;;5098997;28;20163;-78
2022/04/03 03:00:14;;;;;;;1.85;1.10;;;5.40;96.70;;;;;;5087707;28;20043;-77
2022/04/03 03:02:42;;;;;;;1.83;0.80;;;5.40;96.70;;;;;;5087593;28;20055;-77
2022/04/03 03:05:13;;;;;;;1.88;1.20;;;5.40;96.70;;;;;;5101947;28;20402;-78
2022/04/03 03:07:46;;;;;;;2.70;1.40;;;5.40;96.70;;;;;;5101799;28;20044;-78
2022/04/03 03:10:18;;;;;;;2.13;1.48;;;5.30;96.70;;;;;;5104145;28;20043;-77
2022/04/03 03:12:46;;;;;;;1.27;1.15;;;5.30;96.70;;;;;;5081776;28;20717;-78
2022/04/03 03:15:14;;;;;;;2.15;1.75;;;5.30;96.70;;;;;;5096019;28;20058;-78
2022/04/03 03:17:43;;;;;;;2.47;1.95;;;5.40;96.70;;;;;;5102831;28;20042;-77
2022/04/03 03:20:18;;;;;;;1.77;1.23;;;5.40;96.70;;;;;;5103987;28;20142;-78
2022/04/03 03:22:48;;;;;;;2.35;1.67;;;5.10;96.70;;;;;;5100283;28;20071;-78
2022/04/03 03:25:16;;;;;;;2.80;1.85;;;5.00;96.70;;;;;;5100846;28;20050;-77
2022/04/03 03:27:49;;;;;;;4.70;2.30;;;4.90;96.70;;;;;;5102298;28;20087;-78
2022/04/03 03:30:17;;;;;;;3.40;2.15;;;5.10;96.70;;;;;;5116157;28;20050;-78
2022/04/03 03:32:45;;;;;;;3.10;2.10;;;5.20;96.70;;;;;;5099860;28;20042;-78
2022/04/03 03:35:13;;;;;;;3.10;2.40;;;5.30;96.70;;;;;;5100860;28;20568;-78
2022/04/03 03:37:41;;;;;;;2.92;2.20;;;4.90;96.70;;;;;;5099755;28;20075;-76
2022/04/03 03:40:11;;;;;;;2.00;1.80;;;4.80;96.70;;;;;;5103006;28;20040;-78
2022/04/03 03:42:42;;;;;;;2.50;2.00;;;4.80;96.70;;;;;;5091359;28;20066;-73
2022/04/03 03:45:12;;;;;;;2.50;1.80;;;4.80;96.70;;;;;;5093366;28;20039;-72
2022/04/03 03:47:42;;;;;;;3.92;2.78;;;4.90;96.70;;;;;;5085978;28;20048;-73
2022/04/03 03:50:10;;;;;;;5.10;3.25;;;4.80;96.70;;;;;;5098506;28;20048;-73
2022/04/03 03:52:40;;;;;;;5.93;3.00;;;4.90;96.70;;;;;;5120197;27;20118;-74
2022/04/03 03:55:08;;;;;;;3.75;2.72;;;4.80;96.70;;;;;;5087116;28;20066;-73
2022/04/03 03:57:38;;;;;;;14.23;5.13;;;4.90;96.70;;;;;;5105199;27;20783;-73
2022/04/03 04:00:11;;;;;;;10.95;5.43;;;4.80;96.70;;;;;;5127031;27;20066;-74
2022/04/03 04:02:39;;;;;;;11.82;6.00;;;4.80;96.70;;;;;;5126930;27;20539;-73
2022/04/03 04:05:09;;;;;;;8.40;4.43;;;4.70;96.70;;;;;;5108173;27;20043;-73
2022/04/03 04:07:39;;;;;;;4.90;2.90;;;4.70;96.70;;;;;;5108474;27;20227;-73
2022/04/03 04:10:07;;;;;;;15.27;5.60;;;4.80;96.70;;;;;;5090479;27;20047;-73
2022/04/03 04:12:39;;;;;;;6.18;3.58;;;4.90;96.70;;;;;;5091513;27;20050;-73
2022/04/03 04:15:07;;;;;;;6.95;3.05;;;4.80;96.70;;;;;;5108149;27;20650;-73
2022/04/03 04:17:36;;;;;;;5.95;2.58;;;4.90;96.70;;;;;;5126906;27;20043;-73
2022/04/03 04:20:05;;;;;;;7.00;2.95;;;4.90;96.70;;;;;;5108616;27;20516;-73
2022/04/03 04:22:34;;;;;;;5.53;2.42;;;4.90;96.70;;;;;;5106519;27;20131;-72
2022/04/03 04:25:02;;;;;;;2.88;2.28;;;5.00;96.70;;;;;;5108672;27;20763;-72
2022/04/03 04:27:30;;;;;;;3.70;2.45;;;5.00;96.70;;;;;;5107124;27;20043;-73
2022/04/03 04:29:59;;;;;;;3.92;2.53;;;5.00;96.70;;;;;;5126005;27;20035;-74
2022/04/03 04:32:27;;;;;;;2.85;2.33;;;4.90;96.70;;;;;;5108081;27;20382;-73
2022/04/03 04:34:56;;;;;;;3.38;2.67;;;4.70;96.70;;;;;;5109270;27;20097;-73
2022/04/03 04:37:24;;;;;;;2.80;2.13;;;4.70;96.70;;;;;;5125766;27;20046;-74
2022/04/03 04:39:52;;;;;;;2.80;2.08;;;4.70;96.70;;;;;;5104490;27;20058;-74
2022/04/03 04:42:20;;;;;;;3.45;1.60;;;4.80;96.70;;;;;;5107346;27;20054;-73
2022/04/03 04:44:49;;;;;;;2.35;1.90;;;4.70;96.70;;;;;;5126081;27;20092;-74
2022/04/03 04:47:18;;;;;;;2.60;2.00;;;4.70;96.70;;;;;;5108601;27;20043;-73
2022/04/03 04:49:46;;;;;;;2.40;1.60;;;4.70;96.70;;;;;;5103131;27;20139;-73
2022/04/03 04:52:14;;;;;;;2.25;1.77;;;4.70;96.70;;;;;;5125588;27;20062;-73
2022/04/03 04:54:42;;;;;;;1.73;1.60;;;4.70;96.70;;;;;;5126468;27;20043;-74
2022/04/03 04:57:10;;;;;;;2.50;1.95;;;4.70;96.70;;;;;;5106845;27;20145;-73
2022/04/03 04:59:38;;;;;;;2.30;1.67;;;4.60;96.70;;;;;;5126418;27;20039;-73
2022/04/03 05:02:06;;;;;;;2.67;1.95;;;4.70;96.70;;;;;;5125881;27;20047;-73
2022/04/03 05:04:36;;;;;;;1.80;1.52;;;4.80;96.70;;;;;;5107757;27;20069;-73
2022/04/03 05:07:05;;;;;;;1.92;1.42;;;4.70;96.70;;;;;;5090123;27;20075;-73
2022/04/03 05:09:33;;;;;;;1.83;1.40;;;4.80;96.70;;;;;;5090044;28;20452;-73
2022/04/03 05:12:01;;;;;;;1.98;1.60;;;4.90;96.70;;;;;;5106295;27;20126;-73
2022/04/03 05:14:29;;;;;;;1.85;1.55;;;4.90;96.70;;;;;;5107317;27;20130;-73
2022/04/03 05:16:58;;;;;;;2.42;1.70;;;4.80;96.70;;;;;;5107184;27;20057;-74
2022/04/03 05:19:27;;;;;;;2.05;1.65;;;4.70;96.70;;;;;;5107397;27;20035;-74
2022/04/03 05:21:56;;;;;;;2.72;1.63;;;4.70;96.70;;;;;;5106314;27;20067;-73
2022/04/03 05:24:24;;;;;;;2.42;1.52;;;4.80;96.70;;;;;;5107702;27;20126;-74
2022/04/03 05:26:52;;;;;;;2.30;1.60;;;4.90;96.70;;;;;;5105320;27;20061;-73
2022/04/03 05:29:20;;;;;;;2.20;1.80;;;4.90;96.70;;;;;;5126113;27;20042;-73
2022/04/03 05:31:48;;;;;;;2.83;1.92;;;4.80;96.70;;;;;;5125219;27;20050;-73
2022/04/03 05:34:16;;;;;;;3.10;1.92;;;4.70;96.70;;;;;;5090659;27;20043;-73
2022/04/03 05:36:44;;;;;;;1.80;1.50;;;4.80;96.70;;;;;;5124721;27;20432;-73
2022/04/03 05:39:13;;;;;;;1.95;1.60;;;4.80;96.70;;;;;;5123406;27;20039;-73
2022/04/03 05:41:41;;;;;;;2.22;1.90;;;4.70;96.70;;;;;;5106811;27;20035;-73
2022/04/03 05:44:10;;;;;;;3.03;1.70;;;4.70;96.70;;;;;;5105952;27;20057;-72
2022/04/03 05:46:38;;;;;;;2.33;1.80;;;4.70;96.70;;;;;;5105712;27;20092;-72
2022/04/03 05:49:06;;;;;;;6.05;2.00;;;4.60;96.70;;;;;;5106617;27;20423;-73
2022/04/03 05:51:34;;;;;;;2.78;1.77;;;4.50;96.70;;;;;;5123137;27;20466;-73
2022/04/03 05:54:02;;;;;;;3.30;2.00;;;4.60;96.70;;;;;;5106101;27;20133;-73
2022/04/03 05:56:31;;;;;;;4.78;1.77;;;4.70;96.70;;;;;;5124479;27;20049;-73
2022/04/03 05:59:00;;;;;;;2.75;2.22;;;4.60;96.70;;;;;;5106291;27;20795;-73
2022/04/03 06:01:28;;;;;;;3.38;1.90;;;4.60;96.70;;;;;;5106317;27;20070;-73
2022/04/03 06:03:57;;;;;;;3.80;2.35;;;4.60;96.70;;;;;;5123143;27;20770;-72
2022/04/03 06:06:25;;;;;;;3.60;2.70;;;4.70;96.70;;;;;;5105900;27;20042;-73
2022/04/03 06:08:53;;;;;;;5.28;3.65;;;4.70;96.70;;;;;;5124517;27;20706;-73
2022/04/03 06:11:21;;;;;;;7.55;4.85;;;4.70;96.70;;;;;;5105842;27;20043;-74
2022/04/03 06:13:51;;;;;;;5.82;4.90;;;4.70;96.70;;;;;;5088790;27;20455;-74
2022/04/03 06:16:19;;;;;;;7.03;4.10;;;4.80;96.70;;;;;;5125133;27;20043;-73
2022/04/03 06:18:47;;;;;;;4.88;3.25;;;4.80;96.70;;;;;;5105843;27;20069;-73
2022/04/03 06:21:15;;;;;;;3.85;2.97;;;4.80;96.70;;;;;;5122511;27;20088;-73
2022/04/03 06:23:43;;;;;;;4.80;3.92;;;5.00;96.70;;;;;;5105492;27;20385;-73
2022/04/03 06:26:12;;;;;;;9.45;6.78;;;5.10;96.70;;;;;;5122402;27;20088;-73
2022/04/03 06:28:40;;;;;;;15.43;10.05;;;5.20;96.70;;;;;;5086841;27;20043;-73
2022/04/03 06:31:09;;;;;;;16.13;10.18;;;5.20;96.70;;;;;;5106472;27;20050;-73
2022/04/03 06:33:37;;;;;;;15.00;9.93;;;5.30;96.70;;;;;;5083685;27;20051;-73
2022/04/03 06:36:06;;;;;;;12.57;7.88;;;5.20;96.70;;;;;;5105324;27;20054;-73
2022/04/03 06:38:35;;;;;;;8.38;6.30;;;5.20;96.70;;;;;;5106636;27;20043;-73
2022/04/03 06:41:03;;;;;;;10.65;7.40;;;5.20;96.70;;;;;;5124442;27;20055;-73
2022/04/03 06:43:33;;;;;;;7.18;5.35;;;5.20;96.70;;;;;;5123824;27;20484;-72
2022/04/03 06:46:01;;;;;;;6.32;4.05;;;5.20;96.70;;;;;;5105762;27;20040;-73
2022/04/03 06:48:32;;;;;;;4.80;3.38;;;5.30;96.70;;;;;;5105299;27;20035;-73
2022/04/03 06:51:01;;;;;;;4.20;3.25;;;5.30;96.70;;;;;;5100272;27;20544;-72
2022/04/03 06:53:30;;;;;;;3.47;2.30;;;5.30;96.70;;;;;;5104695;27;20092;-73
2022/04/03 06:55:58;;;;;;;3.30;2.45;;;5.20;96.70;;;;;;5091371;27;20058;-73
2022/04/03 06:58:27;;;;;;;2.35;1.90;;;5.30;96.70;;;;;;5088837;27;20405;-73
2022/04/03 07:00:56;;;;;;;2.97;2.22;;;5.40;96.70;;;;;;5105482;27;20071;-73
2022/04/03 07:03:24;;;;;;;3.20;2.40;;;5.50;96.70;;;;;;5120925;27;20313;-74
2022/04/03 07:05:54;;;;;;;4.60;2.42;;;5.70;96.70;;;;;;5105213;27;20043;-74
2022/04/03 07:08:23;;;;;;;4.90;2.22;;;5.70;96.70;;;;;;5102552;27;20050;-74
2022/04/03 07:10:51;;;;;;;4.72;2.33;;;5.70;96.70;;;;;;5123054;27;20043;-74
2022/04/03 07:13:20;;;;;;;5.47;1.77;;;5.70;96.70;;;;;;5105661;27;20051;-72
2022/04/03 07:15:53;;;;;;;2.85;2.17;;;5.90;96.70;;;;;;5121603;27;20039;-74
2022/04/03 07:18:22;;;;;;;2.58;2.15;;;5.90;96.70;;;;;;5106080;28;20563;-75
2022/04/03 07:20:50;;;;;;;2.10;1.90;;;6.00;96.70;;;;;;5104158;27;20054;-73
2022/04/03 07:23:22;;;;;;;2.33;1.73;;;6.10;96.70;;;;;;5123658;27;20038;-74
2022/04/03 07:25:51;;;;;;;2.22;2.03;;;6.10;96.70;;;;;;5105542;28;20039;-74
2022/04/03 07:28:19;;;;;;;2.85;2.38;;;6.20;96.70;;;;;;5088315;28;20043;-74
2022/04/03 07:30:48;;;;;;;2.50;1.85;;;6.20;96.70;;;;;;5123189;27;20035;-73
2022/04/03 07:33:20;;;;;;;2.08;1.88;;;6.30;96.70;;;;;;5125155;27;20035;-74
2022/04/03 07:35:49;;;;;;;2.83;2.03;;;6.40;96.70;;;;;;5125195;27;20058;-74
2022/04/03 07:38:18;;;;;;;2.22;1.92;;;6.50;96.70;;;;;;5108033;27;20447;-73
2022/04/03 07:40:49;;;;;;;2.83;2.10;;;6.60;96.70;;;;;;5108342;27;20477;-73
2022/04/03 07:43:23;;;;;;;4.05;2.40;;;6.60;96.70;;;;;;5092917;27;20146;-74
2022/04/03 07:45:52;;;;;;;3.10;2.60;;;6.70;96.70;;;;;;5127153;27;20071;-76
2022/04/03 07:48:21;;;;;;;3.83;2.17;;;6.90;96.70;;;;;;5128380;27;20496;-76
2022/04/03 07:50:51;;;;;;;4.15;2.08;;;6.90;96.70;;;;;;5091269;27;20110;-73
2022/04/03 07:53:20;;;;;;;2.42;2.10;;;6.90;96.70;;;;;;5091962;27;20039;-73
2022/04/03 07:55:50;;;;;;;4.43;2.58;;;7.00;96.70;;;;;;5108146;27;20054;-74
2022/04/03 07:58:19;;;;;;;3.08;2.65;;;7.10;96.70;;;;;;5108997;27;20048;-75
2022/04/03 08:00:49;;;;;;;3.17;2.55;;;7.10;96.70;;;;;;5108013;27;20708;-74
2022/04/03 08:03:18;;;;;;;4.50;3.58;;;7.20;96.70;;;;;;5127191;27;20039;-76
2022/04/03 08:05:47;;;;;;;6.25;4.70;;;7.30;96.70;;;;;;5107814;27;20117;-73
2022/04/03 08:08:16;;;;;;;6.38;5.10;;;7.40;96.70;;;;;;5124964;27;20043;-74
2022/04/03 08:10:44;;;;;;;5.22;4.63;;;7.50;96.70;;;;;;5126691;27;20042;-76
2022/04/03 08:13:17;;;;;;;8.32;6.20;;;7.60;96.70;;;;;;5125327;27;20199;-76
2022/04/03 08:15:45;;;;;;;6.40;5.35;;;7.70;96.70;;;;;;5108578;27;20059;-74
2022/04/03 08:18:14;;;;;;;6.20;4.88;;;7.80;96.70;;;;;;5107201;27;20039;-74
2022/04/03 08:20:43;;;;;;;6.05;4.53;;;7.80;96.70;;;;;;5121769;27;20058;-74
2022/04/03 08:23:12;;;;;;;6.25;4.70;;;7.90;96.70;;;;;;5107260;27;20046;-74
2022/04/03 08:25:40;;;;;;;6.32;4.15;;;8.00;96.70;;;;;;5091914;27;20035;-75
2022/04/03 08:28:09;;;;;;;7.25;4.90;;;8.20;96.70;;;;;;5124449;27;20492;-75
2022/04/03 08:30:39;;;;;;;5.32;3.85;;;8.30;96.70;;;;;;5108366;27;20083;-74
2022/04/03 08:33:11;;;;;;;4.35;3.67;;;8.40;96.70;;;;;;5108859;27;20053;-75
2022/04/03 08:35:41;;;;;;;5.03;3.97;;;8.60;96.70;;;;;;5105639;27;20513;-74
2022/04/03 08:38:09;;;;;;;6.13;4.13;;;8.70;96.70;;;;;;5124641;27;20054;-74
2022/04/03 08:40:38;;;;;;;4.72;4.03;;;8.90;96.70;;;;;;5126314;27;20039;-74
2022/04/03 08:43:06;;;;;;;5.78;3.95;;;9.00;96.70;;;;;;5123383;27;20052;-74
2022/04/03 08:45:35;;;;;;;4.55;3.70;;;9.10;96.70;;;;;;5094202;27;20047;-76
2022/04/03 08:48:07;;;;;;;4.80;3.88;;;9.30;96.70;;;;;;5124727;27;20130;-75
2022/04/03 08:50:37;;;;;;;5.90;3.72;;;9.40;96.70;;;;;;5105709;27;20047;-75
2022/04/03 08:53:08;;;;;;;7.18;4.45;;;9.50;96.70;;;;;;5082669;28;20051;-77
2022/04/03 08:55:36;;;;;;;5.20;3.80;;;9.60;96.70;;;;;;5084825;28;20044;-75
2022/04/03 08:58:05;;;;;;;5.10;3.70;;;9.70;96.70;;;;;;5084142;28;20048;-76
2022/04/03 09:00:33;;;;;;;5.25;3.90;;;9.80;96.70;;;;;;5088572;28;20063;-81
2022/04/03 09:03:02;;;;;;;5.40;3.80;;;9.90;96.70;;;;;;5079006;28;20432;-80
2022/04/03 09:05:40;;;;;;;3.92;3.08;;;9.90;96.70;;;;;;5072047;28;20097;-75
2022/04/03 09:08:09;;;;;;;4.75;3.08;;;10.00;96.70;;;;;;5083828;28;20051;-75
2022/04/03 09:11:00;;;;;;;4.60;3.30;;;10.10;96.70;;;;;;5085332;28;20122;-82
2022/04/03 09:13:29;;;;;;;4.13;3.10;;;10.20;96.70;;;;;;5084772;28;20123;-81
2022/04/03 09:15:57;;;;;;;4.32;3.20;;;10.20;96.70;;;;;;5088933;28;20051;-82
2022/04/03 09:18:44;;;;;;;4.75;3.65;;;10.10;96.70;;;;;;5088966;28;20052;-82
2022/04/03 09:21:21;;;;;;;5.63;4.47;;;10.20;96.70;;;;;;5088183;28;20496;-83
2022/04/03 09:24:00;;;;;;;5.53;3.63;;;10.30;96.70;;;;;;5084438;28;20039;-83
2022/04/03 09:26:30;;;;;;;5.00;3.92;;;10.40;96.70;;;;;;5090131;28;20048;-81
2022/04/03 09:29:12;;;;;;;5.30;3.58;;;10.60;96.70;;;;;;5089970;28;20055;-83
2022/04/03 09:31:42;;;;;;;5.13;3.70;;;10.80;96.70;;;;;;5071564;28;20493;-84
2022/04/03 09:34:15;;;;;;;5.65;3.97;;;10.80;96.70;;;;;;5085337;28;20048;-82
2022/04/03 09:36:56;;;;;;;5.18;3.58;;;10.80;96.70;;;;;;5084764;28;20044;-83
2022/04/03 09:39:28;;;;;;;5.95;3.35;;;10.70;96.70;;;;;;5071913;28;20105;-81
2022/04/03 09:42:00;;;;;;;3.40;2.72;;;10.80;96.70;;;;;;5086949;28;20513;-81
2022/04/03 09:44:31;;;;;;;5.18;3.22;;;10.90;96.70;;;;;;5087894;28;20528;-82
2022/04/03 09:47:20;;;;;;;4.72;3.03;;;10.90;96.70;;;;;;5086969;28;20441;-85
2022/04/03 09:49:55;;;;;;;4.75;3.58;;;11.10;96.70;;;;;;5080047;28;20377;-82
2022/04/03 09:52:43;;;;;;;4.07;2.80;;;11.30;96.70;;;;;;5103984;28;20062;-82
2022/04/03 09:55:17;;;;;;;4.40;3.22;;;11.50;96.70;;;;;;5103376;28;20492;-82
2022/04/03 09:57:47;;;;;;;3.95;2.83;;;11.60;96.70;;;;;;5090972;28;20056;-80
2022/04/03 10:00:41;;;;;;;5.53;2.75;;;11.90;96.70;;;;;;5105249;28;20052;-83
2022/04/03 10:03:11;;;;;;;4.35;3.03;;;12.10;96.70;;;;;;5106292;28;20050;-80
2022/04/03 10:05:41;;;;;;;5.75;2.85;;;12.10;96.70;;;;;;5109394;28;20053;-84
2022/04/03 10:08:12;;;;;;;5.55;3.70;;;12.10;96.70;;;;;;5107992;28;20642;-83
2022/04/03 10:10:41;;;;;;;8.07;4.93;;;12.00;96.70;;;;;;5090961;28;21444;-83
2022/04/03 10:13:10;;;;;;;3.33;2.70;;;11.80;96.70;;;;;;5107333;28;20527;-83
2022/04/03 10:15:38;;;;;;;3.22;2.00;;;12.00;96.70;;;;;;5087780;28;20139;-82
2022/04/03 10:18:07;;;;;;;3.88;2.10;;;12.40;96.70;;;;;;5090484;27;20060;-85
2022/04/03 10:20:37;;;;;;;3.25;2.53;;;12.50;96.70;;;;;;5101881;28;20048;-83
2022/04/03 10:23:10;;;;;;;3.92;2.00;;;12.50;96.70;;;;;;5107437;28;20048;-84
2022/04/03 10:25:44;;;;;;;2.92;1.80;;;12.80;96.70;;;;;;5091478;28;20671;-84
2022/04/03 10:28:16;;;;;;;2.83;1.85;;;12.90;96.70;;;;;;5087553;28;20048;-83
2022/04/03 10:30:45;;;;;;;5.13;2.63;;;13.10;96.70;;;;;;5102711;28;20055;-83
2022/04/03 10:33:20;;;;;;;4.43;2.47;;;13.10;96.70;;;;;;5094474;28;20067;-83
2022/04/03 10:36:04;;;;;;;2.88;1.65;;;13.00;96.70;;;;;;5090969;28;20527;-85
2022/04/03 10:38:37;;;;;;;3.17;1.85;;;13.30;96.70;;;;;;5103006;28;20488;-82
2022/04/03 10:41:07;;;;;;;3.53;1.85;;;13.60;96.70;;;;;;5109048;28;20055;-83
2022/04/03 10:43:39;;;;;;;2.65;1.63;;;13.80;96.70;;;;;;5107565;28;20661;-85
2022/04/03 10:46:08;;;;;;;2.40;1.63;;;13.80;96.70;;;;;;5082075;28;20070;-83
2022/04/03 10:48:37;;;;;;;2.30;1.40;;;14.00;96.70;;;;;;5104264;28;20048;-84
2022/04/03 10:51:09;;;;;;;9.57;7.70;;;14.20;96.70;;;;;;5085202;28;20047;-83
2022/04/03 10:53:39;;;;;;;5.55;3.40;;;14.40;96.70;;;;;;5087320;28;20051;-86
2022/04/03 10:56:20;;;;;;;2.92;1.77;;;14.60;96.70;;;;;;5107993;28;20046;-86
2022/04/03 10:58:49;;;;;;;10.55;6.75;;;14.60;96.70;;;;;;5107274;28;20138;-81
2022/04/03 11:01:26;;;;;;;10.88;8.13;;;14.80;96.70;;;;;;5105833;27;20074;-85
2022/04/03 11:03:57;;;;;;;8.07;5.57;;;14.80;96.70;;;;;;5129195;27;20048;-84
2022/04/03 11:06:29;;;;;;;5.88;4.18;;;14.80;96.70;;;;;;5105623;28;20071;-83
2022/04/03 11:09:12;;;;;;;3.97;2.88;;;15.00;96.70;;;;;;5091600;28;20466;-84
2022/04/03 11:11:48;;;;;;;2.67;1.60;;;15.10;96.70;;;;;;5106540;28;20043;-83
2022/04/03 11:14:52;;;;;;;1.63;1.10;;;15.20;96.70;;;;;;5108378;28;20039;-81
2022/04/03 11:17:49;;;;;;;2.08;1.08;;;15.40;96.70;;;;;;5093456;28;20075;-86
2022/04/03 11:20:32;;;;;;;2.10;1.48;;;15.40;96.70;;;;;;5104241;28;20037;-86
2022/04/03 11:23:01;;;;;;;3.20;1.50;;;15.40;96.70;;;;;;5104401;28;20066;-85
2022/04/03 11:25:30;;;;;;;1.75;0.88;;;15.40;96.70;;;;;;5102006;28;20070;-82
2022/04/03 11:28:01;;;;;;;1.30;0.50;;;15.40;96.70;;;;;;5108608;28;20044;-83
2022/04/03 11:30:31;;;;;;;1.33;0.82;;;15.70;96.70;;;;;;5108107;28;20043;-83
2022/04/03 11:33:00;;;;;;;1.05;0.70;;;15.70;96.70;;;;;;5102990;28;20048;-82
2022/04/03 11:35:33;;;;;;;1.98;0.80;;;15.50;96.70;;;;;;5103011;28;20040;-82
2022/04/03 11:38:02;;;;;;;2.00;0.80;;;15.70;96.70;;;;;;5102152;28;20047;-77
2022/04/03 11:40:32;;;;;;;1.33;0.90;;;15.90;96.70;;;;;;5102096;28;20040;-78
2022/04/03 11:43:11;;;;;;;3.05;2.08;;;15.90;96.70;;;;;;5083969;28;20047;-78
2022/04/03 11:45:40;;;;;;;1.55;0.90;;;15.50;96.70;;;;;;5101330;28;20071;-77
2022/04/03 11:48:17;;;;;;;2.97;1.17;;;15.40;96.70;;;;;;5085397;28;20853;-78
2022/04/03 11:50:48;;;;;;;1.45;0.90;;;15.40;96.70;;;;;;5101761;28;20072;-77
2022/04/03 11:53:18;;;;;;;0.80;0.70;;;15.20;96.70;;;;;;5084642;28;20137;-77
2022/04/03 11:55:47;;;;;;;1.52;0.70;;;15.00;96.70;;;;;;5120045;27;20047;-77
2022/04/03 11:58:17;;;;;;;1.70;0.88;;;14.80;96.70;;;;;;5104479;28;20057;-77
2022/04/03 12:00:47;;;;;;;1.48;0.75;;;14.70;96.70;;;;;;5104010;28;20047;-77
2022/04/03 12:03:27;;;;;;;1.38;0.75;;;14.60;96.70;;;;;;5122112;28;20036;-77
2022/04/03 12:06:12;;;;;;;1.38;0.70;;;14.50;96.70;;;;;;5103545;27;20055;-77
2022/04/03 12:08:48;;;;;;;1.67;0.70;;;14.30;96.70;;;;;;5087979;27;20078;-76
2022/04/03 12:11:18;;;;;;;2.15;1.00;;;14.20;96.70;;;;;;5103941;28;20103;-77
2022/04/03 12:13:48;;;;;;;2.25;0.80;;;14.20;96.70;;;;;;5108994;27;20489;-78
2022/04/03 12:16:19;;;;;;;0.85;0.63;;;14.00;96.70;;;;;;5105172;28;20031;-77
2022/04/03 12:18:58;;;;;;;1.35;0.60;;;13.90;96.70;;;;;;5084634;27;20130;-76
2022/04/03 12:21:41;;;;;;;1.65;0.93;;;13.90;96.70;;;;;;5103914;27;20081;-83
2022/04/03 12:24:14;;;;;;;3.30;1.70;;;13.70;96.70;;;;;;5113860;27;20031;-84
2022/04/03 12:26:50;;;;;;;4.25;3.00;;;13.40;96.70;;;;;;5097303;27;20518;-84
2022/04/03 12:29:22;;;;;;;5.53;3.45;;;13.10;96.70;;;;;;5113901;27;20543;-84
2022/04/03 12:31:59;;;;;;;2.50;1.50;;;12.90;96.70;;;;;;5113381;27;20590;-84
2022/04/03 12:34:28;;;;;;;3.15;1.52;;;12.70;96.70;;;;;;5112141;27;20055;-83
2022/04/03 12:36:58;;;;;;;4.47;2.10;;;12.60;96.70;;;;;;5105278;27;20050;-81
2022/04/03 12:39:38;;;;;;;5.72;3.40;;;12.50;96.70;;;;;;5113847;27;20070;-83
2022/04/03 12:42:13;;;;;;;6.20;4.32;;;12.50;96.70;;;;;;5097651;27;20046;-83
2022/04/03 12:44:53;;;;;;;3.35;2.30;;;12.50;96.70;;;;;;5111724;27;20066;-82
2022/04/03 12:47:29;;;;;;;4.20;2.22;;;12.50;96.70;;;;;;5096700;27;20035;-83
2022/04/03 12:50:21;;;;;;;7.90;4.53;;;12.40;96.70;;;;;;5113803;27;20564;-83
2022/04/03 12:52:56;;;;;;;3.20;1.98;;;12.40;96.70;;;;;;5080233;28;20143;-82
2022/04/03 12:55:32;;;;;;;2.33;1.27;;;12.40;96.70;;;;;;5105845;28;20097;-83
2022/04/03 12:58:26;;;;;;;3.63;2.10;;;12.40;96.70;;;;;;5100788;28;20123;-82
2022/04/03 13:01:10;;;;;;;1.67;1.45;;;12.40;96.70;;;;;;5124676;27;20043;-83
2022/04/03 13:03:42;;;;;;;1.50;1.05;;;12.40;96.70;;;;;;5082924;28;20063;-76
2022/04/03 13:06:13;;;;;;;2.47;1.27;;;12.40;96.70;;;;;;5103904;28;20043;-76
2022/04/03 13:08:54;;;;;;;2.15;1.05;;;12.40;96.70;;;;;;5100725;28;20577;-77
2022/04/03 13:11:29;;;;;;;2.08;1.35;;;12.40;96.70;;;;;;5100288;28;20070;-77